sensor_id;sensor_type;location;lat;lon;timestamp;P1;durP1;ratioP1;P2;durP2;ratioP2
23588;SDS011;11972;48.078;11.876;2023-03-31T00:01:25;4.38;;;3.97;;
23588;SDS011;11972;48.078;11.876;2023-03-31T00:05:27;6.35;;;4.13;;
23588;SDS011;11972;48.078;11.876;2023-03-31T00:09:27;6.53;;;3.63;;
23588;SDS011;11972;48.078;11.876;2023-03-31T00:13:29;4.70;;;3.80;;
23588;SDS011;11972;48.078;11.876;2023-03-31T00:17:30;5.85;;;4.35;;
23588;SDS011;11972;48.078;11.876;2023-03-31T00:21:32;7.53;;;3.67;;
23588;SDS011;11972;48.078;11.876;2023-03-31T00:25:38;6.07;;;3.63;;
23588;SDS011;11972;48.078;11.876;2023-03-31T00:29:43;5.43;;;3.80;;
23588;SDS011;11972;48.078;11.876;2023-03-31T00:33:44;5.82;;;3.67;;
23588;SDS011;11972;48.078;11.876;2023-03-31T00:37:44;4.15;;;3.40;;
23588;SDS011;11972;48.078;11.876;2023-03-31T00:41:46;6.53;;;4.00;;
23588;SDS011;11972;48.078;11.876;2023-03-31T00:45:46;7.72;;;4.68;;
23588;SDS011;11972;48.078;11.876;2023-03-31T00:49:47;5.15;;;4.10;;
23588;SDS011;11972;48.078;11.876;2023-03-31T00:53:54;9.60;;;3.65;;
23588;SDS011;11972;48.078;11.876;2023-03-31T00:58:03;7.32;;;4.10;;
23588;SDS011;11972;48.078;11.876;2023-03-31T01:02:05;7.40;;;4.43;;
23588;SDS011;11972;48.078;11.876;2023-03-31T01:06:07;6.63;;;4.30;;
23588;SDS011;11972;48.078;11.876;2023-03-31T01:10:09;5.03;;;3.95;;
23588;SDS011;11972;48.078;11.876;2023-03-31T01:14:10;6.35;;;4.38;;
23588;SDS011;11972;48.078;11.876;2023-03-31T01:18:11;9.52;;;4.40;;
23588;SDS011;11972;48.078;11.876;2023-03-31T01:22:21;4.95;;;4.38;;
23588;SDS011;11972;48.078;11.876;2023-03-31T01:53:15;6.70;;;4.60;;
23588;SDS011;11972;48.078;11.876;2023-03-31T01:57:31;9.23;;;4.57;;
23588;SDS011;11972;48.078;11.876;2023-03-31T02:01:37;7.22;;;4.78;;
23588;SDS011;11972;48.078;11.876;2023-03-31T02:05:48;8.70;;;4.88;;
23588;SDS011;11972;48.078;11.876;2023-03-31T02:09:57;5.50;;;4.97;;
23588;SDS011;11972;48.078;11.876;2023-03-31T02:14:01;5.50;;;4.95;;
23588;SDS011;11972;48.078;11.876;2023-03-31T02:18:04;6.00;;;5.22;;
23588;SDS011;11972;48.078;11.876;2023-03-31T02:22:10;6.95;;;5.72;;
23588;SDS011;11972;48.078;11.876;2023-03-31T02:26:13;7.10;;;5.40;;
23588;SDS011;11972;48.078;11.876;2023-03-31T02:30:17;5.82;;;5.28;;
23588;SDS011;11972;48.078;11.876;2023-03-31T02:34:18;6.90;;;5.63;;
23588;SDS011;11972;48.078;11.876;2023-03-31T02:38:18;9.60;;;5.63;;
23588;SDS011;11972;48.078;11.876;2023-03-31T02:42:19;7.10;;;5.80;;
23588;SDS011;11972;48.078;11.876;2023-03-31T02:46:20;6.78;;;6.07;;
23588;SDS011;11972;48.078;11.876;2023-03-31T02:50:21;6.32;;;5.13;;
23588;SDS011;11972;48.078;11.876;2023-03-31T02:54:42;9.38;;;5.50;;
23588;SDS011;11972;48.078;11.876;2023-03-31T03:03:28;7.43;;;4.60;;
23588;SDS011;11972;48.078;11.876;2023-03-31T03:07:57;5.97;;;3.90;;
23588;SDS011;11972;48.078;11.876;2023-03-31T03:12:20;6.53;;;4.15;;
23588;SDS011;11972;48.078;11.876;2023-03-31T03:16:44;7.10;;;3.80;;
23588;SDS011;11972;48.078;11.876;2023-03-31T03:20:48;8.45;;;4.00;;
23588;SDS011;11972;48.078;11.876;2023-03-31T03:24:49;10.30;;;7.05;;
23588;SDS011;11972;48.078;11.876;2023-03-31T03:28:51;14.27;;;9.95;;
23588;SDS011;11972;48.078;11.876;2023-03-31T03:32:51;18.50;;;13.77;;
23588;SDS011;11972;48.078;11.876;2023-03-31T03:36:53;6.78;;;4.95;;
23588;SDS011;11972;48.078;11.876;2023-03-31T03:40:53;12.00;;;7.53;;
23588;SDS011;11972;48.078;11.876;2023-03-31T03:44:54;9.93;;;8.70;;
23588;SDS011;11972;48.078;11.876;2023-03-31T03:48:54;6.85;;;6.05;;
23588;SDS011;11972;48.078;11.876;2023-03-31T03:52:55;5.93;;;4.47;;
23588;SDS011;11972;48.078;11.876;2023-03-31T03:56:55;6.65;;;4.35;;
23588;SDS011;11972;48.078;11.876;2023-03-31T04:00:55;6.68;;;4.30;;
23588;SDS011;11972;48.078;11.876;2023-03-31T04:04:56;5.43;;;3.97;;
23588;SDS011;11972;48.078;11.876;2023-03-31T04:08:56;5.18;;;4.35;;
23588;SDS011;11972;48.078;11.876;2023-03-31T04:12:57;8.52;;;4.20;;
23588;SDS011;11972;48.078;11.876;2023-03-31T04:16:57;6.73;;;4.37;;
23588;SDS011;11972;48.078;11.876;2023-03-31T04:20:57;8.70;;;4.70;;
23588;SDS011;11972;48.078;11.876;2023-03-31T04:25:03;7.65;;;4.88;;
23588;SDS011;11972;48.078;11.876;2023-03-31T04:29:13;8.98;;;5.30;;
23588;SDS011;11972;48.078;11.876;2023-03-31T04:33:19;8.35;;;4.95;;
23588;SDS011;11972;48.078;11.876;2023-03-31T04:37:20;7.65;;;5.93;;
23588;SDS011;11972;48.078;11.876;2023-03-31T04:41:21;12.37;;;5.50;;
23588;SDS011;11972;48.078;11.876;2023-03-31T04:45:22;7.25;;;5.70;;
23588;SDS011;11972;48.078;11.876;2023-03-31T04:49:22;9.55;;;6.10;;
23588;SDS011;11972;48.078;11.876;2023-03-31T04:53:23;8.45;;;6.03;;
23588;SDS011;11972;48.078;11.876;2023-03-31T04:57:23;10.80;;;6.90;;
23588;SDS011;11972;48.078;11.876;2023-03-31T05:01:23;13.05;;;8.45;;
23588;SDS011;11972;48.078;11.876;2023-03-31T05:05:24;12.98;;;7.03;;
23588;SDS011;11972;48.078;11.876;2023-03-31T05:09:24;9.25;;;6.45;;
23588;SDS011;11972;48.078;11.876;2023-03-31T05:13:24;10.43;;;6.10;;
23588;SDS011;11972;48.078;11.876;2023-03-31T05:17:25;9.03;;;5.97;;
23588;SDS011;11972;48.078;11.876;2023-03-31T05:21:25;9.90;;;6.87;;
23588;SDS011;11972;48.078;11.876;2023-03-31T05:25:26;12.60;;;7.13;;
23588;SDS011;11972;48.078;11.876;2023-03-31T05:29:31;9.30;;;6.80;;
23588;SDS011;11972;48.078;11.876;2023-03-31T05:33:32;9.40;;;7.32;;
23588;SDS011;11972;48.078;11.876;2023-03-31T05:37:33;8.40;;;6.72;;
23588;SDS011;11972;48.078;11.876;2023-03-31T05:41:33;15.70;;;9.82;;
23588;SDS011;11972;48.078;11.876;2023-03-31T05:45:33;12.85;;;9.52;;
23588;SDS011;11972;48.078;11.876;2023-03-31T05:49:34;10.73;;;6.90;;
23588;SDS011;11972;48.078;11.876;2023-03-31T05:53:34;7.78;;;5.85;;
23588;SDS011;11972;48.078;11.876;2023-03-31T05:57:35;6.65;;;5.82;;
23588;SDS011;11972;48.078;11.876;2023-03-31T06:01:35;6.30;;;5.65;;
23588;SDS011;11972;48.078;11.876;2023-03-31T06:05:35;9.25;;;6.03;;
23588;SDS011;11972;48.078;11.876;2023-03-31T06:09:36;6.43;;;5.73;;
23588;SDS011;11972;48.078;11.876;2023-03-31T06:13:36;8.55;;;5.20;;
23588;SDS011;11972;48.078;11.876;2023-03-31T06:17:38;6.13;;;5.47;;
23588;SDS011;11972;48.078;11.876;2023-03-31T06:21:38;8.65;;;5.40;;
23588;SDS011;11972;48.078;11.876;2023-03-31T06:25:38;7.68;;;5.28;;
23588;SDS011;11972;48.078;11.876;2023-03-31T06:29:39;6.18;;;5.05;;
23588;SDS011;11972;48.078;11.876;2023-03-31T06:33:40;5.82;;;4.32;;
23588;SDS011;11972;48.078;11.876;2023-03-31T06:37:41;7.72;;;4.53;;
23588;SDS011;11972;48.078;11.876;2023-03-31T06:41:41;4.40;;;4.03;;
23588;SDS011;11972;48.078;11.876;2023-03-31T06:45:41;5.75;;;4.18;;
23588;SDS011;11972;48.078;11.876;2023-03-31T06:49:42;5.60;;;5.03;;
23588;SDS011;11972;48.078;11.876;2023-03-31T06:53:42;5.05;;;4.53;;
23588;SDS011;11972;48.078;11.876;2023-03-31T06:57:43;5.63;;;4.25;;
23588;SDS011;11972;48.078;11.876;2023-03-31T07:01:43;4.47;;;4.07;;
23588;SDS011;11972;48.078;11.876;2023-03-31T07:05:48;4.70;;;4.20;;
23588;SDS011;11972;48.078;11.876;2023-03-31T07:09:49;5.07;;;3.97;;
23588;SDS011;11972;48.078;11.876;2023-03-31T07:13:50;4.93;;;4.03;;
23588;SDS011;11972;48.078;11.876;2023-03-31T07:17:50;4.93;;;4.50;;
23588;SDS011;11972;48.078;11.876;2023-03-31T07:21:52;6.20;;;4.47;;
23588;SDS011;11972;48.078;11.876;2023-03-31T07:25:53;5.03;;;4.43;;
23588;SDS011;11972;48.078;11.876;2023-03-31T07:29:54;5.00;;;4.25;;
23588;SDS011;11972;48.078;11.876;2023-03-31T07:33:54;5.28;;;4.53;;
23588;SDS011;11972;48.078;11.876;2023-03-31T07:37:55;5.27;;;4.87;;
23588;SDS011;11972;48.078;11.876;2023-03-31T07:41:55;14.18;;;5.40;;
23588;SDS011;11972;48.078;11.876;2023-03-31T07:45:55;8.15;;;6.28;;
23588;SDS011;11972;48.078;11.876;2023-03-31T07:49:56;11.02;;;6.93;;
23588;SDS011;11972;48.078;11.876;2023-03-31T07:53:56;8.00;;;7.20;;
23588;SDS011;11972;48.078;11.876;2023-03-31T07:57:56;10.35;;;7.22;;
23588;SDS011;11972;48.078;11.876;2023-03-31T08:01:57;11.25;;;9.45;;
23588;SDS011;11972;48.078;11.876;2023-03-31T08:05:57;11.77;;;8.80;;
23588;SDS011;11972;48.078;11.876;2023-03-31T08:09:57;10.68;;;7.97;;
23588;SDS011;11972;48.078;11.876;2023-03-31T08:13:58;9.30;;;8.30;;
23588;SDS011;11972;48.078;11.876;2023-03-31T08:17:58;9.90;;;8.75;;
23588;SDS011;11972;48.078;11.876;2023-03-31T08:21:59;8.63;;;7.78;;
23588;SDS011;11972;48.078;11.876;2023-03-31T08:26:09;7.13;;;6.53;;
23588;SDS011;11972;48.078;11.876;2023-03-31T08:30:17;6.25;;;5.60;;
23588;SDS011;11972;48.078;11.876;2023-03-31T08:34:18;6.40;;;5.70;;
23588;SDS011;11972;48.078;11.876;2023-03-31T08:38:19;6.03;;;5.25;;
23588;SDS011;11972;48.078;11.876;2023-03-31T08:46:34;5.18;;;4.68;;
23588;SDS011;11972;48.078;11.876;2023-03-31T08:50:35;5.63;;;4.65;;
23588;SDS011;11972;48.078;11.876;2023-03-31T08:54:45;4.68;;;4.30;;
23588;SDS011;11972;48.078;11.876;2023-03-31T08:58:49;5.35;;;4.90;;
23588;SDS011;11972;48.078;11.876;2023-03-31T09:11:34;5.13;;;4.68;;
23588;SDS011;11972;48.078;11.876;2023-03-31T09:15:52;5.90;;;4.80;;
23588;SDS011;11972;48.078;11.876;2023-03-31T09:20:05;5.88;;;3.70;;
23588;SDS011;11972;48.078;11.876;2023-03-31T09:28:30;4.45;;;4.05;;
23588;SDS011;11972;48.078;11.876;2023-03-31T09:32:36;4.47;;;3.65;;
23588;SDS011;11972;48.078;11.876;2023-03-31T09:36:37;3.85;;;3.47;;
23588;SDS011;11972;48.078;11.876;2023-03-31T09:40:38;4.47;;;3.00;;
23588;SDS011;11972;48.078;11.876;2023-03-31T09:44:39;3.30;;;2.55;;
23588;SDS011;11972;48.078;11.876;2023-03-31T09:48:46;4.45;;;2.58;;
23588;SDS011;11972;48.078;11.876;2023-03-31T09:52:52;3.90;;;2.40;;
23588;SDS011;11972;48.078;11.876;2023-03-31T09:56:55;4.20;;;2.20;;
23588;SDS011;11972;48.078;11.876;2023-03-31T10:01:02;2.20;;;1.70;;
23588;SDS011;11972;48.078;11.876;2023-03-31T10:05:06;2.60;;;1.90;;
23588;SDS011;11972;48.078;11.876;2023-03-31T10:09:19;3.10;;;2.03;;
23588;SDS011;11972;48.078;11.876;2023-03-31T10:13:27;2.70;;;1.80;;
23588;SDS011;11972;48.078;11.876;2023-03-31T10:17:34;2.72;;;2.13;;
23588;SDS011;11972;48.078;11.876;2023-03-31T10:21:39;4.32;;;2.35;;
23588;SDS011;11972;48.078;11.876;2023-03-31T10:25:45;3.08;;;1.95;;
23588;SDS011;11972;48.078;11.876;2023-03-31T10:29:46;3.03;;;2.28;;
23588;SDS011;11972;48.078;11.876;2023-03-31T10:33:47;2.40;;;1.80;;
23588;SDS011;11972;48.078;11.876;2023-03-31T10:37:53;1.60;;;1.50;;
23588;SDS011;11972;48.078;11.876;2023-03-31T10:41:55;2.63;;;1.80;;
23588;SDS011;11972;48.078;11.876;2023-03-31T10:45:57;2.42;;;1.75;;
23588;SDS011;11972;48.078;11.876;2023-03-31T10:50:03;2.55;;;1.85;;
23588;SDS011;11972;48.078;11.876;2023-03-31T10:54:04;3.67;;;2.05;;
23588;SDS011;11972;48.078;11.876;2023-03-31T10:58:30;2.25;;;1.88;;
23588;SDS011;11972;48.078;11.876;2023-03-31T11:24:13;2.60;;;2.40;;
23588;SDS011;11972;48.078;11.876;2023-03-31T11:28:25;4.57;;;2.35;;
23588;SDS011;11972;48.078;11.876;2023-03-31T11:41:13;3.58;;;2.75;;
23588;SDS011;11972;48.078;11.876;2023-03-31T11:45:19;5.63;;;1.70;;
23588;SDS011;11972;48.078;11.876;2023-03-31T11:53:38;3.05;;;1.70;;
23588;SDS011;11972;48.078;11.876;2023-03-31T11:57:43;3.67;;;1.27;;
23588;SDS011;11972;48.078;11.876;2023-03-31T12:01:54;2.17;;;0.90;;
23588;SDS011;11972;48.078;11.876;2023-03-31T12:06:12;1.63;;;1.00;;
23588;SDS011;11972;48.078;11.876;2023-03-31T12:10:22;0.88;;;0.60;;
23588;SDS011;11972;48.078;11.876;2023-03-31T12:14:42;1.58;;;0.75;;
23588;SDS011;11972;48.078;11.876;2023-03-31T12:18:56;1.50;;;0.70;;
23588;SDS011;11972;48.078;11.876;2023-03-31T12:22:57;0.98;;;0.80;;
23588;SDS011;11972;48.078;11.876;2023-03-31T12:31:26;1.63;;;0.80;;
23588;SDS011;11972;48.078;11.876;2023-03-31T12:35:48;1.38;;;0.80;;
23588;SDS011;11972;48.078;11.876;2023-03-31T12:53:15;1.95;;;1.20;;
23588;SDS011;11972;48.078;11.876;2023-03-31T12:57:41;2.63;;;1.40;;
23588;SDS011;11972;48.078;11.876;2023-03-31T13:10:27;1.83;;;1.23;;
23588;SDS011;11972;48.078;11.876;2023-03-31T13:14:37;2.40;;;1.40;;
23588;SDS011;11972;48.078;11.876;2023-03-31T13:18:41;2.65;;;1.45;;
23588;SDS011;11972;48.078;11.876;2023-03-31T13:22:53;1.70;;;1.10;;
23588;SDS011;11972;48.078;11.876;2023-03-31T13:32:04;2.35;;;0.68;;
23588;SDS011;11972;48.078;11.876;2023-03-31T13:40:29;1.30;;;0.60;;
23588;SDS011;11972;48.078;11.876;2023-03-31T13:49:00;2.28;;;0.60;;
23588;SDS011;11972;48.078;11.876;2023-03-31T14:05:56;0.93;;;0.60;;
23588;SDS011;11972;48.078;11.876;2023-03-31T14:10:24;1.15;;;0.60;;
23588;SDS011;11972;48.078;11.876;2023-03-31T14:14:33;1.08;;;0.57;;
23588;SDS011;11972;48.078;11.876;2023-03-31T14:18:34;1.10;;;0.70;;
23588;SDS011;11972;48.078;11.876;2023-03-31T14:22:43;2.08;;;0.80;;
23588;SDS011;11972;48.078;11.876;2023-03-31T14:35:21;1.35;;;0.80;;
23588;SDS011;11972;48.078;11.876;2023-03-31T14:39:32;1.67;;;0.70;;
23588;SDS011;11972;48.078;11.876;2023-03-31T14:43:39;1.48;;;0.82;;
23588;SDS011;11972;48.078;11.876;2023-03-31T14:47:57;1.73;;;0.90;;
23588;SDS011;11972;48.078;11.876;2023-03-31T14:52:10;2.03;;;0.90;;
23588;SDS011;11972;48.078;11.876;2023-03-31T14:56:25;1.23;;;0.70;;
23588;SDS011;11972;48.078;11.876;2023-03-31T15:00:32;0.35;;;0.35;;
23588;SDS011;11972;48.078;11.876;2023-03-31T15:04:36;3.40;;;0.20;;
23588;SDS011;11972;48.078;11.876;2023-03-31T15:08:43;0.98;;;0.32;;
23588;SDS011;11972;48.078;11.876;2023-03-31T15:12:45;0.60;;;0.22;;
23588;SDS011;11972;48.078;11.876;2023-03-31T15:16:48;1.45;;;0.40;;
23588;SDS011;11972;48.078;11.876;2023-03-31T15:20:49;1.00;;;0.30;;
23588;SDS011;11972;48.078;11.876;2023-03-31T15:24:49;2.95;;;0.40;;
23588;SDS011;11972;48.078;11.876;2023-03-31T15:28:51;1.02;;;0.30;;
23588;SDS011;11972;48.078;11.876;2023-03-31T15:32:55;1.60;;;0.30;;
23588;SDS011;11972;48.078;11.876;2023-03-31T15:36:56;1.08;;;0.50;;
23588;SDS011;11972;48.078;11.876;2023-03-31T15:40:57;0.60;;;0.30;;
23588;SDS011;11972;48.078;11.876;2023-03-31T15:49:23;1.08;;;0.30;;
23588;SDS011;11972;48.078;11.876;2023-03-31T15:53:34;0.88;;;0.38;;
23588;SDS011;11972;48.078;11.876;2023-03-31T15:57:43;0.85;;;0.40;;
23588;SDS011;11972;48.078;11.876;2023-03-31T16:01:44;1.60;;;0.30;;
23588;SDS011;11972;48.078;11.876;2023-03-31T16:05:54;1.27;;;0.52;;
23588;SDS011;11972;48.078;11.876;2023-03-31T16:14:20;0.85;;;0.50;;
23588;SDS011;11972;48.078;11.876;2023-03-31T16:18:26;0.57;;;0.40;;
23588;SDS011;11972;48.078;11.876;2023-03-31T16:22:32;1.90;;;0.57;;
23588;SDS011;11972;48.078;11.876;2023-03-31T16:26:36;0.82;;;0.50;;
23588;SDS011;11972;48.078;11.876;2023-03-31T16:30:38;1.05;;;0.47;;
23588;SDS011;11972;48.078;11.876;2023-03-31T16:34:57;1.20;;;0.70;;
23588;SDS011;11972;48.078;11.876;2023-03-31T16:38:58;0.60;;;0.50;;
23588;SDS011;11972;48.078;11.876;2023-03-31T16:43:07;2.05;;;0.88;;
23588;SDS011;11972;48.078;11.876;2023-03-31T16:51:13;3.22;;;0.90;;
23588;SDS011;11972;48.078;11.876;2023-03-31T16:55:13;0.75;;;0.47;;
23588;SDS011;11972;48.078;11.876;2023-03-31T16:59:14;0.93;;;0.55;;
23588;SDS011;11972;48.078;11.876;2023-03-31T17:03:15;1.58;;;0.68;;
23588;SDS011;11972;48.078;11.876;2023-03-31T17:07:15;1.98;;;0.60;;
23588;SDS011;11972;48.078;11.876;2023-03-31T17:11:16;0.90;;;0.40;;
23588;SDS011;11972;48.078;11.876;2023-03-31T17:15:16;2.72;;;0.60;;
23588;SDS011;11972;48.078;11.876;2023-03-31T17:19:17;1.23;;;0.60;;
23588;SDS011;11972;48.078;11.876;2023-03-31T17:23:17;0.55;;;0.38;;
23588;SDS011;11972;48.078;11.876;2023-03-31T17:27:18;1.23;;;0.38;;
23588;SDS011;11972;48.078;11.876;2023-03-31T17:31:18;1.60;;;0.30;;
23588;SDS011;11972;48.078;11.876;2023-03-31T17:35:20;1.35;;;0.30;;
23588;SDS011;11972;48.078;11.876;2023-03-31T17:39:21;0.50;;;0.30;;
23588;SDS011;11972;48.078;11.876;2023-03-31T17:43:21;0.50;;;0.28;;
23588;SDS011;11972;48.078;11.876;2023-03-31T17:47:22;0.80;;;0.32;;
23588;SDS011;11972;48.078;11.876;2023-03-31T17:51:22;1.15;;;0.30;;
23588;SDS011;11972;48.078;11.876;2023-03-31T17:55:23;0.40;;;0.20;;
23588;SDS011;11972;48.078;11.876;2023-03-31T17:59:23;1.45;;;0.40;;
23588;SDS011;11972;48.078;11.876;2023-03-31T18:03:26;0.47;;;0.30;;
23588;SDS011;11972;48.078;11.876;2023-03-31T18:07:27;0.90;;;0.20;;
23588;SDS011;11972;48.078;11.876;2023-03-31T18:11:27;0.77;;;0.20;;
23588;SDS011;11972;48.078;11.876;2023-03-31T18:15:28;0.65;;;0.20;;
23588;SDS011;11972;48.078;11.876;2023-03-31T18:19:28;0.60;;;0.20;;
23588;SDS011;11972;48.078;11.876;2023-03-31T18:23:29;1.55;;;0.20;;
23588;SDS011;11972;48.078;11.876;2023-03-31T18:27:29;0.32;;;0.20;;
23588;SDS011;11972;48.078;11.876;2023-03-31T18:31:29;0.80;;;0.30;;
23588;SDS011;11972;48.078;11.876;2023-03-31T18:35:30;1.45;;;0.43;;
23588;SDS011;11972;48.078;11.876;2023-03-31T18:39:31;2.80;;;0.55;;
23588;SDS011;11972;48.078;11.876;2023-03-31T18:43:31;0.68;;;0.30;;
23588;SDS011;11972;48.078;11.876;2023-03-31T18:47:32;1.25;;;0.35;;
23588;SDS011;11972;48.078;11.876;2023-03-31T18:51:32;1.15;;;0.28;;
23588;SDS011;11972;48.078;11.876;2023-03-31T18:55:33;0.50;;;0.20;;
23588;SDS011;11972;48.078;11.876;2023-03-31T18:59:33;0.65;;;0.20;;
23588;SDS011;11972;48.078;11.876;2023-03-31T19:03:33;1.00;;;0.20;;
23588;SDS011;11972;48.078;11.876;2023-03-31T19:07:34;2.40;;;0.50;;
23588;SDS011;11972;48.078;11.876;2023-03-31T19:11:35;0.75;;;0.28;;
23588;SDS011;11972;48.078;11.876;2023-03-31T19:15:37;0.35;;;0.20;;
23588;SDS011;11972;48.078;11.876;2023-03-31T19:19:37;1.07;;;0.30;;
23588;SDS011;11972;48.078;11.876;2023-03-31T19:23:37;0.28;;;0.20;;
23588;SDS011;11972;48.078;11.876;2023-03-31T19:27:38;1.48;;;0.28;;
23588;SDS011;11972;48.078;11.876;2023-03-31T19:31:40;1.33;;;0.30;;
23588;SDS011;11972;48.078;11.876;2023-03-31T19:35:41;2.00;;;0.50;;
23588;SDS011;11972;48.078;11.876;2023-03-31T19:39:43;1.60;;;0.30;;
23588;SDS011;11972;48.078;11.876;2023-03-31T19:43:43;1.88;;;0.32;;
23588;SDS011;11972;48.078;11.876;2023-03-31T19:47:46;3.08;;;0.45;;
23588;SDS011;11972;48.078;11.876;2023-03-31T19:51:47;1.00;;;0.30;;
23588;SDS011;11972;48.078;11.876;2023-03-31T19:55:57;1.08;;;0.40;;
23588;SDS011;11972;48.078;11.876;2023-03-31T19:59:58;3.28;;;0.60;;
23588;SDS011;11972;48.078;11.876;2023-03-31T20:03:59;2.33;;;0.38;;
23588;SDS011;11972;48.078;11.876;2023-03-31T20:08:00;1.42;;;0.30;;
23588;SDS011;11972;48.078;11.876;2023-03-31T20:12:00;2.92;;;0.60;;
23588;SDS011;11972;48.078;11.876;2023-03-31T20:16:05;1.42;;;0.40;;
23588;SDS011;11972;48.078;11.876;2023-03-31T20:20:19;2.28;;;0.70;;
23588;SDS011;11972;48.078;11.876;2023-03-31T20:24:19;3.88;;;0.65;;
23588;SDS011;11972;48.078;11.876;2023-03-31T20:28:20;1.63;;;0.50;;
23588;SDS011;11972;48.078;11.876;2023-03-31T20:32:20;3.17;;;0.60;;
23588;SDS011;11972;48.078;11.876;2023-03-31T20:36:22;1.63;;;0.40;;
23588;SDS011;11972;48.078;11.876;2023-03-31T20:40:24;2.08;;;0.40;;
23588;SDS011;11972;48.078;11.876;2023-03-31T20:44:24;2.30;;;0.45;;
23588;SDS011;11972;48.078;11.876;2023-03-31T20:48:25;4.50;;;0.75;;
23588;SDS011;11972;48.078;11.876;2023-03-31T20:52:26;1.70;;;0.60;;
23588;SDS011;11972;48.078;11.876;2023-03-31T21:00:32;2.85;;;0.50;;
23588;SDS011;11972;48.078;11.876;2023-03-31T21:04:35;1.98;;;0.60;;
23588;SDS011;11972;48.078;11.876;2023-03-31T21:08:36;2.97;;;0.50;;
23588;SDS011;11972;48.078;11.876;2023-03-31T21:12:36;2.83;;;0.70;;
23588;SDS011;11972;48.078;11.876;2023-03-31T21:16:37;3.70;;;0.75;;
23588;SDS011;11972;48.078;11.876;2023-03-31T21:20:37;2.85;;;0.70;;
23588;SDS011;11972;48.078;11.876;2023-03-31T21:24:37;2.15;;;0.50;;
23588;SDS011;11972;48.078;11.876;2023-03-31T21:28:38;1.77;;;0.57;;
23588;SDS011;11972;48.078;11.876;2023-03-31T21:32:38;3.03;;;0.40;;
23588;SDS011;11972;48.078;11.876;2023-03-31T21:36:38;3.20;;;0.50;;
23588;SDS011;11972;48.078;11.876;2023-03-31T21:40:39;1.85;;;0.50;;
23588;SDS011;11972;48.078;11.876;2023-03-31T21:44:40;1.95;;;0.40;;
23588;SDS011;11972;48.078;11.876;2023-03-31T21:48:41;3.45;;;0.77;;
23588;SDS011;11972;48.078;11.876;2023-03-31T21:52:42;2.38;;;0.40;;
23588;SDS011;11972;48.078;11.876;2023-03-31T21:56:42;1.67;;;0.40;;
23588;SDS011;11972;48.078;11.876;2023-03-31T22:00:43;2.75;;;0.60;;
23588;SDS011;11972;48.078;11.876;2023-03-31T22:04:43;2.60;;;0.30;;
23588;SDS011;11972;48.078;11.876;2023-03-31T22:08:44;1.90;;;0.40;;
23588;SDS011;11972;48.078;11.876;2023-03-31T22:12:44;1.65;;;0.38;;
23588;SDS011;11972;48.078;11.876;2023-03-31T22:16:45;1.27;;;0.30;;
23588;SDS011;11972;48.078;11.876;2023-03-31T22:20:46;2.63;;;0.50;;
23588;SDS011;11972;48.078;11.876;2023-03-31T22:24:47;1.90;;;0.60;;
23588;SDS011;11972;48.078;11.876;2023-03-31T22:28:48;2.45;;;0.57;;
23588;SDS011;11972;48.078;11.876;2023-03-31T22:32:48;1.48;;;0.40;;
23588;SDS011;11972;48.078;11.876;2023-03-31T22:36:49;0.75;;;0.40;;
23588;SDS011;11972;48.078;11.876;2023-03-31T22:40:50;1.60;;;0.30;;
23588;SDS011;11972;48.078;11.876;2023-03-31T22:44:50;1.35;;;0.40;;
23588;SDS011;11972;48.078;11.876;2023-03-31T22:48:50;1.10;;;0.32;;
23588;SDS011;11972;48.078;11.876;2023-03-31T22:52:50;1.00;;;0.38;;
23588;SDS011;11972;48.078;11.876;2023-03-31T22:56:51;0.65;;;0.20;;
23588;SDS011;11972;48.078;11.876;2023-03-31T23:00:55;1.58;;;0.52;;
23588;SDS011;11972;48.078;11.876;2023-03-31T23:04:56;1.27;;;0.20;;
23588;SDS011;11972;48.078;11.876;2023-03-31T23:08:57;0.73;;;0.40;;
23588;SDS011;11972;48.078;11.876;2023-03-31T23:12:57;2.15;;;0.30;;
23588;SDS011;11972;48.078;11.876;2023-03-31T23:16:57;1.30;;;0.30;;
23588;SDS011;11972;48.078;11.876;2023-03-31T23:20:58;0.88;;;0.32;;
23588;SDS011;11972;48.078;11.876;2023-03-31T23:24:58;1.27;;;0.20;;
23588;SDS011;11972;48.078;11.876;2023-03-31T23:28:59;1.27;;;0.30;;
23588;SDS011;11972;48.078;11.876;2023-03-31T23:33:00;1.33;;;0.40;;
23588;SDS011;11972;48.078;11.876;2023-03-31T23:37:00;0.75;;;0.20;;
23588;SDS011;11972;48.078;11.876;2023-03-31T23:41:00;0.57;;;0.30;;
23588;SDS011;11972;48.078;11.876;2023-03-31T23:45:01;0.73;;;0.20;;
23588;SDS011;11972;48.078;11.876;2023-03-31T23:49:02;0.63;;;0.10;;
23588;SDS011;11972;48.078;11.876;2023-03-31T23:53:03;1.05;;;0.28;;
23588;SDS011;11972;48.078;11.876;2023-03-31T23:57:04;1.00;;;0.25;;
